Detall de PIREP

Printer-friendly versionPDF version

[2013/01/04 16:49:00]
Flight IATA:CT2114
Pilot Number:044
Company ICAO:CAT
Aircraft Type:AT72/F
PAX:51
Departing Airport: LEVC
Destination Airport: LEXJ
Alternate Airport:LEBB
Online: VATSIM
Route:CENTA A33 MAGIN/F220 R753 EMANU
Flight Level:F230
No Slew and time accel
No pause
Crash detect
Detect pilot in Cockpit between each 30 and 45 minutes
16:49 Zero fuel Weight: 39665 Lbs, Fuel Weight: 6613 Lbs
16:49 VATSIM:LEVC 041630Z 21003KT CAVOK 18/01 Q1033 NOSIG
16:49 VATSIM:LEXJ 041630Z 00000KT CAVOK 12/09 Q1037
16:50 VOICE CATALONIAN
16:51 Parking Brakes off
17:02 Take-off
17:02 Take off Weight: 46173 Lbs
17:02 Wind: 213º @ 003 Knots Heading: 114º
17:02 POS N39º 29´ 24´´ W000º 29´ 00´´
17:02 Flaps:1 at 139 Knots
17:02 Gear Up: 142 Knots
17:02 Flaps:0 at 150 Knots
17:17 Wind:234º@009 Knots Heading: 320º Ground Speed: 225 Knots Altitude 20836 ft
17:19 TOC
17:19 Fuel Weight: 5899 Lb
17:32 Wind:201º@004 Knots Heading: 295º Ground Speed: 282 Knots Altitude 23658 ft
17:47 Wind:168º@003 Knots Heading: 318º Ground Speed: 287 Knots Altitude 23651 ft
17:47 TOD
17:47 Fuel Weight: 5019 Lb
18:02 Wind:057º@009 Knots Heading: 000º Ground Speed: 281 Knots Altitude 22670 ft
18:17 Wind:059º@002 Knots Heading: 350º Ground Speed: 197 Knots Altitude 8710 ft
18:28 Flaps:1 at 160 Knots
18:30 Gear Down: 158 Knots
18:30 Flaps:2 at 142 Knots
18:32 Wind:028º@000 Knots Heading: 290º Ground Speed: 117 Knots Altitude 1023 ft
18:33 TouchDown:Rate -69 ft/min Speed: 104 Knots
18:34 VATSIM:LEXJ 041800Z 00000KT 8000 NSC 09/08 Q1038
18:34 Land
18:34 Wind:015º@000 Knots
18:34 Heading: 290º
18:34 Flight Duration: 01:32
18:34 Landing Weight: 43904 Lbs
18:34 POS N43º 25´ 42´´ W003º 49´ 34´´
18:37 Parking brakes on
18:37 Block to Block Duration: 01:46
18:37 Final Fuel: 4212 Lbls
18:37 Spent Fuel: 2400 Lbls
18:37 Flight Length: 369 NM
18:37 TOD Land Length: 178 NM

Exportar CSV

Powered by Drupal - Modified by Danger4k